sensor_id;sensor_type;location;lat;lon;timestamp;temperature;humidity
14873;DHT22;7528;48.576;19.122;2023-04-12T00:00:48;9.90;68.20
14873;DHT22;7528;48.576;19.122;2023-04-12T00:05:53;9.80;70.00
14873;DHT22;7528;48.576;19.122;2023-04-12T00:10:56;9.80;68.80
14873;DHT22;7528;48.576;19.122;2023-04-12T00:15:59;9.80;68.30
14873;DHT22;7528;48.576;19.122;2023-04-12T00:21:03;9.70;68.50
14873;DHT22;7528;48.576;19.122;2023-04-12T00:26:06;9.60;68.40
14873;DHT22;7528;48.576;19.122;2023-04-12T00:31:09;9.60;68.60
14873;DHT22;7528;48.576;19.122;2023-04-12T00:36:13;9.60;68.90
14873;DHT22;7528;48.576;19.122;2023-04-12T00:41:16;9.60;68.30
14873;DHT22;7528;48.576;19.122;2023-04-12T00:46:19;9.60;68.80
14873;DHT22;7528;48.576;19.122;2023-04-12T00:51:23;9.60;68.50
14873;DHT22;7528;48.576;19.122;2023-04-12T00:56:27;9.50;68.20
14873;DHT22;7528;48.576;19.122;2023-04-12T01:01:30;9.40;67.40
14873;DHT22;7528;48.576;19.122;2023-04-12T01:06:44;9.40;67.20
14873;DHT22;7528;48.576;19.122;2023-04-12T01:11:59;9.40;66.50
14873;DHT22;7528;48.576;19.122;2023-04-12T01:17:07;9.30;66.70
14873;DHT22;7528;48.576;19.122;2023-04-12T01:27:53;9.30;66.60
14873;DHT22;7528;48.576;19.122;2023-04-12T01:33:00;9.30;66.50
14873;DHT22;7528;48.576;19.122;2023-04-12T01:38:05;9.20;66.40
14873;DHT22;7528;48.576;19.122;2023-04-12T01:43:10;9.10;67.10
14873;DHT22;7528;48.576;19.122;2023-04-12T01:48:13;9.00;67.30
14873;DHT22;7528;48.576;19.122;2023-04-12T01:53:20;9.00;67.30
14873;DHT22;7528;48.576;19.122;2023-04-12T01:58:25;9.00;66.80
14873;DHT22;7528;48.576;19.122;2023-04-12T02:03:32;8.90;67.20
14873;DHT22;7528;48.576;19.122;2023-04-12T02:08:37;8.90;67.10
14873;DHT22;7528;48.576;19.122;2023-04-12T02:13:43;8.90;67.60
14873;DHT22;7528;48.576;19.122;2023-04-12T02:18:46;8.80;67.10
14873;DHT22;7528;48.576;19.122;2023-04-12T02:23:49;8.80;67.70
14873;DHT22;7528;48.576;19.122;2023-04-12T02:28:53;8.80;67.50
14873;DHT22;7528;48.576;19.122;2023-04-12T02:33:56;8.80;67.50
14873;DHT22;7528;48.576;19.122;2023-04-12T02:38:59;8.70;67.50
14873;DHT22;7528;48.576;19.122;2023-04-12T02:44:03;8.70;67.30
14873;DHT22;7528;48.576;19.122;2023-04-12T02:49:06;8.70;67.00
14873;DHT22;7528;48.576;19.122;2023-04-12T02:54:14;8.70;66.90
14873;DHT22;7528;48.576;19.122;2023-04-12T02:59:27;8.70;67.00
14873;DHT22;7528;48.576;19.122;2023-04-12T03:04:55;8.60;67.20
14873;DHT22;7528;48.576;19.122;2023-04-12T03:10:08;8.60;67.70
14873;DHT22;7528;48.576;19.122;2023-04-12T03:15:17;8.50;67.40
14873;DHT22;7528;48.576;19.122;2023-04-12T03:20:25;8.50;67.40
14873;DHT22;7528;48.576;19.122;2023-04-12T03:25:35;8.50;67.20
14873;DHT22;7528;48.576;19.122;2023-04-12T03:31:00;8.40;67.20
14873;DHT22;7528;48.576;19.122;2023-04-12T03:36:13;8.40;67.10
14873;DHT22;7528;48.576;19.122;2023-04-12T03:41:15;8.40;67.10
14873;DHT22;7528;48.576;19.122;2023-04-12T03:46:20;8.40;66.60
14873;DHT22;7528;48.576;19.122;2023-04-12T03:51:29;8.40;66.50
14873;DHT22;7528;48.576;19.122;2023-04-12T03:56:38;8.40;66.10
14873;DHT22;7528;48.576;19.122;2023-04-12T04:01:48;8.40;66.20
14873;DHT22;7528;48.576;19.122;2023-04-12T04:06:51;8.30;66.40
14873;DHT22;7528;48.576;19.122;2023-04-12T04:11:54;8.30;66.40
14873;DHT22;7528;48.576;19.122;2023-04-12T04:17:00;8.30;66.30
14873;DHT22;7528;48.576;19.122;2023-04-12T04:22:03;8.30;66.40
14873;DHT22;7528;48.576;19.122;2023-04-12T04:27:06;8.30;66.20
14873;DHT22;7528;48.576;19.122;2023-04-12T04:32:11;8.40;66.40
14873;DHT22;7528;48.576;19.122;2023-04-12T04:37:14;8.40;66.60
14873;DHT22;7528;48.576;19.122;2023-04-12T04:42:20;8.40;67.00
14873;DHT22;7528;48.576;19.122;2023-04-12T04:47:35;8.40;67.20
14873;DHT22;7528;48.576;19.122;2023-04-12T04:52:38;8.50;66.40
14873;DHT22;7528;48.576;19.122;2023-04-12T04:57:45;8.60;66.80
14873;DHT22;7528;48.576;19.122;2023-04-12T05:02:51;8.60;66.20
14873;DHT22;7528;48.576;19.122;2023-04-12T05:07:58;8.70;66.70
14873;DHT22;7528;48.576;19.122;2023-04-12T05:13:04;8.80;66.70
14873;DHT22;7528;48.576;19.122;2023-04-12T05:18:08;8.90;65.30
14873;DHT22;7528;48.576;19.122;2023-04-12T05:23:11;9.00;64.90
14873;DHT22;7528;48.576;19.122;2023-04-12T05:28:14;9.10;64.80
14873;DHT22;7528;48.576;19.122;2023-04-12T05:33:19;9.30;64.50
14873;DHT22;7528;48.576;19.122;2023-04-12T05:38:23;9.30;64.20
14873;DHT22;7528;48.576;19.122;2023-04-12T05:43:30;9.40;64.50
14873;DHT22;7528;48.576;19.122;2023-04-12T05:48:34;9.50;63.90
14873;DHT22;7528;48.576;19.122;2023-04-12T05:53:37;9.60;63.80
14873;DHT22;7528;48.576;19.122;2023-04-12T05:58:41;9.70;63.00
14873;DHT22;7528;48.576;19.122;2023-04-12T06:03:47;9.80;63.00
14873;DHT22;7528;48.576;19.122;2023-04-12T06:08:49;9.90;60.90
14873;DHT22;7528;48.576;19.122;2023-04-12T06:13:52;10.10;61.50
14873;DHT22;7528;48.576;19.122;2023-04-12T06:18:56;10.20;60.60
14873;DHT22;7528;48.576;19.122;2023-04-12T06:24:00;10.40;58.50
14873;DHT22;7528;48.576;19.122;2023-04-12T06:29:03;10.60;57.50
14873;DHT22;7528;48.576;19.122;2023-04-12T06:34:08;10.70;55.10
14873;DHT22;7528;48.576;19.122;2023-04-12T06:39:12;10.80;54.50
14873;DHT22;7528;48.576;19.122;2023-04-12T06:44:16;11.00;54.60
14873;DHT22;7528;48.576;19.122;2023-04-12T06:49:20;11.10;52.80
14873;DHT22;7528;48.576;19.122;2023-04-12T06:54:22;11.20;52.90
14873;DHT22;7528;48.576;19.122;2023-04-12T06:59:25;11.40;53.00
14873;DHT22;7528;48.576;19.122;2023-04-12T07:04:29;11.60;53.20
14873;DHT22;7528;48.576;19.122;2023-04-12T07:09:32;11.70;52.40
14873;DHT22;7528;48.576;19.122;2023-04-12T07:14:35;11.90;51.70
14873;DHT22;7528;48.576;19.122;2023-04-12T07:19:39;11.90;50.90
14873;DHT22;7528;48.576;19.122;2023-04-12T07:24:43;12.10;50.50
14873;DHT22;7528;48.576;19.122;2023-04-12T07:29:46;12.40;50.40
14873;DHT22;7528;48.576;19.122;2023-04-12T07:34:50;12.40;49.10
14873;DHT22;7528;48.576;19.122;2023-04-12T07:39:53;12.70;50.40
14873;DHT22;7528;48.576;19.122;2023-04-12T07:44:56;12.90;47.60
14873;DHT22;7528;48.576;19.122;2023-04-12T07:50:00;12.90;46.60
14873;DHT22;7528;48.576;19.122;2023-04-12T07:55:04;13.10;47.70
14873;DHT22;7528;48.576;19.122;2023-04-12T08:00:08;13.20;46.80
14873;DHT22;7528;48.576;19.122;2023-04-12T08:05:15;13.40;47.50
14873;DHT22;7528;48.576;19.122;2023-04-12T08:10:18;13.50;45.70
14873;DHT22;7528;48.576;19.122;2023-04-12T08:15:21;13.70;47.10
14873;DHT22;7528;48.576;19.122;2023-04-12T08:20:25;13.90;46.40
14873;DHT22;7528;48.576;19.122;2023-04-12T08:25:27;14.20;48.20
14873;DHT22;7528;48.576;19.122;2023-04-12T08:30:30;14.30;44.60
14873;DHT22;7528;48.576;19.122;2023-04-12T08:35:34;14.40;43.10
14873;DHT22;7528;48.576;19.122;2023-04-12T08:40:36;14.50;42.80
14873;DHT22;7528;48.576;19.122;2023-04-12T08:45:39;14.50;43.30
14873;DHT22;7528;48.576;19.122;2023-04-12T08:50:45;14.90;45.20
14873;DHT22;7528;48.576;19.122;2023-04-12T08:55:49;15.20;44.90
14873;DHT22;7528;48.576;19.122;2023-04-12T09:00:51;15.50;44.00
14873;DHT22;7528;48.576;19.122;2023-04-12T09:05:56;15.70;43.80
14873;DHT22;7528;48.576;19.122;2023-04-12T09:10:58;16.00;42.80
14873;DHT22;7528;48.576;19.122;2023-04-12T09:16:02;16.20;43.70
14873;DHT22;7528;48.576;19.122;2023-04-12T09:21:08;16.40;41.80
14873;DHT22;7528;48.576;19.122;2023-04-12T09:26:26;16.70;41.20
14873;DHT22;7528;48.576;19.122;2023-04-12T09:31:31;16.90;39.70
14873;DHT22;7528;48.576;19.122;2023-04-12T09:36:39;17.10;40.70
14873;DHT22;7528;48.576;19.122;2023-04-12T09:41:42;17.20;37.20
14873;DHT22;7528;48.576;19.122;2023-04-12T09:46:49;17.20;38.90
14873;DHT22;7528;48.576;19.122;2023-04-12T09:51:54;17.30;39.60
14873;DHT22;7528;48.576;19.122;2023-04-12T09:56:57;17.50;39.70
14873;DHT22;7528;48.576;19.122;2023-04-12T10:01:59;17.80;37.70
14873;DHT22;7528;48.576;19.122;2023-04-12T10:07:03;18.00;38.10
14873;DHT22;7528;48.576;19.122;2023-04-12T10:12:07;18.00;37.90
14873;DHT22;7528;48.576;19.122;2023-04-12T10:17:12;18.20;36.40
14873;DHT22;7528;48.576;19.122;2023-04-12T10:22:17;18.20;37.80
14873;DHT22;7528;48.576;19.122;2023-04-12T10:27:24;18.40;36.60
14873;DHT22;7528;48.576;19.122;2023-04-12T10:32:27;18.50;37.60
14873;DHT22;7528;48.576;19.122;2023-04-12T10:37:58;18.50;36.50
14873;DHT22;7528;48.576;19.122;2023-04-12T10:43:28;18.50;37.10
14873;DHT22;7528;48.576;19.122;2023-04-12T10:48:32;18.70;38.30
14873;DHT22;7528;48.576;19.122;2023-04-12T10:53:36;18.80;36.50
14873;DHT22;7528;48.576;19.122;2023-04-12T10:58:55;19.00;36.40
14873;DHT22;7528;48.576;19.122;2023-04-12T11:04:22;19.30;36.40
14873;DHT22;7528;48.576;19.122;2023-04-12T11:09:42;19.20;36.40
14873;DHT22;7528;48.576;19.122;2023-04-12T11:15:04;19.10;35.00
14873;DHT22;7528;48.576;19.122;2023-04-12T11:20:28;19.20;35.20
14873;DHT22;7528;48.576;19.122;2023-04-12T11:25:35;19.50;35.30
14873;DHT22;7528;48.576;19.122;2023-04-12T11:30:51;19.70;34.90
14873;DHT22;7528;48.576;19.122;2023-04-12T11:35:53;19.60;33.10
14873;DHT22;7528;48.576;19.122;2023-04-12T11:40:58;19.70;34.40
14873;DHT22;7528;48.576;19.122;2023-04-12T11:46:00;20.00;32.70
14873;DHT22;7528;48.576;19.122;2023-04-12T11:51:18;19.90;32.00
14873;DHT22;7528;48.576;19.122;2023-04-12T11:56:22;19.60;32.40
14873;DHT22;7528;48.576;19.122;2023-04-12T12:01:25;19.60;32.50
14873;DHT22;7528;48.576;19.122;2023-04-12T12:06:29;19.90;33.50
14873;DHT22;7528;48.576;19.122;2023-04-12T12:11:34;20.10;32.80
14873;DHT22;7528;48.576;19.122;2023-04-12T12:16:36;20.10;32.10
14873;DHT22;7528;48.576;19.122;2023-04-12T12:21:41;20.20;32.00
14873;DHT22;7528;48.576;19.122;2023-04-12T12:26:48;20.20;32.60
14873;DHT22;7528;48.576;19.122;2023-04-12T12:31:51;20.30;31.00
14873;DHT22;7528;48.576;19.122;2023-04-12T12:36:54;20.20;31.40
14873;DHT22;7528;48.576;19.122;2023-04-12T12:41:58;20.30;29.80
14873;DHT22;7528;48.576;19.122;2023-04-12T12:47:02;20.00;29.60
14873;DHT22;7528;48.576;19.122;2023-04-12T12:52:05;19.70;30.20
14873;DHT22;7528;48.576;19.122;2023-04-12T12:57:09;19.70;30.30
14873;DHT22;7528;48.576;19.122;2023-04-12T13:02:11;19.50;30.60
14873;DHT22;7528;48.576;19.122;2023-04-12T13:07:15;19.50;31.10
14873;DHT22;7528;48.576;19.122;2023-04-12T13:12:19;19.70;31.30
14873;DHT22;7528;48.576;19.122;2023-04-12T13:17:22;19.90;31.80
14873;DHT22;7528;48.576;19.122;2023-04-12T13:22:25;20.10;32.10
14873;DHT22;7528;48.576;19.122;2023-04-12T13:27:29;20.30;30.30
14873;DHT22;7528;48.576;19.122;2023-04-12T13:32:32;20.10;29.90
14873;DHT22;7528;48.576;19.122;2023-04-12T13:37:35;19.80;29.30
14873;DHT22;7528;48.576;19.122;2023-04-12T13:42:39;19.60;29.00
14873;DHT22;7528;48.576;19.122;2023-04-12T13:47:42;19.70;29.50
14873;DHT22;7528;48.576;19.122;2023-04-12T13:52:44;19.70;28.70
14873;DHT22;7528;48.576;19.122;2023-04-12T13:57:48;19.80;29.10
14873;DHT22;7528;48.576;19.122;2023-04-12T14:02:51;19.90;29.80
14873;DHT22;7528;48.576;19.122;2023-04-12T14:07:53;19.90;30.40
14873;DHT22;7528;48.576;19.122;2023-04-12T14:12:57;19.60;28.80
14873;DHT22;7528;48.576;19.122;2023-04-12T14:17:59;19.40;29.30
14873;DHT22;7528;48.576;19.122;2023-04-12T14:23:02;19.30;29.40
14873;DHT22;7528;48.576;19.122;2023-04-12T14:28:06;19.20;29.60
14873;DHT22;7528;48.576;19.122;2023-04-12T14:33:09;19.20;29.80
14873;DHT22;7528;48.576;19.122;2023-04-12T14:38:11;19.20;30.90
14873;DHT22;7528;48.576;19.122;2023-04-12T14:43:15;19.10;30.40
14873;DHT22;7528;48.576;19.122;2023-04-12T14:48:19;19.00;30.10
14873;DHT22;7528;48.576;19.122;2023-04-12T14:53:22;19.10;30.10
14873;DHT22;7528;48.576;19.122;2023-04-12T14:58:25;19.00;30.10
14873;DHT22;7528;48.576;19.122;2023-04-12T15:03:29;19.00;32.50
14873;DHT22;7528;48.576;19.122;2023-04-12T15:08:33;18.90;32.40
14873;DHT22;7528;48.576;19.122;2023-04-12T15:13:44;18.70;33.90
14873;DHT22;7528;48.576;19.122;2023-04-12T15:18:47;18.70;33.40
14873;DHT22;7528;48.576;19.122;2023-04-12T15:23:50;18.70;34.30
14873;DHT22;7528;48.576;19.122;2023-04-12T15:28:54;18.70;34.80
14873;DHT22;7528;48.576;19.122;2023-04-12T15:33:56;18.70;34.90
14873;DHT22;7528;48.576;19.122;2023-04-12T15:39:00;18.70;35.70
14873;DHT22;7528;48.576;19.122;2023-04-12T15:44:06;18.70;35.60
14873;DHT22;7528;48.576;19.122;2023-04-12T15:49:09;18.80;35.60
14873;DHT22;7528;48.576;19.122;2023-04-12T15:54:12;18.70;36.30
14873;DHT22;7528;48.576;19.122;2023-04-12T15:59:17;18.50;35.80
14873;DHT22;7528;48.576;19.122;2023-04-12T16:04:20;18.30;36.20
14873;DHT22;7528;48.576;19.122;2023-04-12T16:09:22;18.20;36.30
14873;DHT22;7528;48.576;19.122;2023-04-12T16:14:26;18.20;37.10
14873;DHT22;7528;48.576;19.122;2023-04-12T16:19:29;18.20;36.40
14873;DHT22;7528;48.576;19.122;2023-04-12T16:24:32;18.20;36.30
14873;DHT22;7528;48.576;19.122;2023-04-12T16:29:36;18.10;36.50
14873;DHT22;7528;48.576;19.122;2023-04-12T16:34:40;18.00;36.00
14873;DHT22;7528;48.576;19.122;2023-04-12T16:39:44;17.90;37.20
14873;DHT22;7528;48.576;19.122;2023-04-12T16:44:48;17.70;37.80
14873;DHT22;7528;48.576;19.122;2023-04-12T16:49:51;17.70;37.60
14873;DHT22;7528;48.576;19.122;2023-04-12T16:54:54;17.40;36.80
14873;DHT22;7528;48.576;19.122;2023-04-12T16:59:58;17.20;33.20
14873;DHT22;7528;48.576;19.122;2023-04-12T17:05:01;17.10;34.50
14873;DHT22;7528;48.576;19.122;2023-04-12T17:10:05;16.90;34.80
14873;DHT22;7528;48.576;19.122;2023-04-12T17:15:10;16.80;35.70
14873;DHT22;7528;48.576;19.122;2023-04-12T17:20:14;16.60;38.30
14873;DHT22;7528;48.576;19.122;2023-04-12T17:25:17;16.40;39.20
14873;DHT22;7528;48.576;19.122;2023-04-12T17:30:21;16.30;39.60
14873;DHT22;7528;48.576;19.122;2023-04-12T17:35:24;16.10;39.30
14873;DHT22;7528;48.576;19.122;2023-04-12T17:40:26;16.00;39.60
14873;DHT22;7528;48.576;19.122;2023-04-12T17:45:30;15.90;40.30
14873;DHT22;7528;48.576;19.122;2023-04-12T17:50:33;15.70;40.50
14873;DHT22;7528;48.576;19.122;2023-04-12T17:55:35;15.50;40.90
14873;DHT22;7528;48.576;19.122;2023-04-12T18:00:40;15.40;41.00
14873;DHT22;7528;48.576;19.122;2023-04-12T18:05:44;15.30;41.00
14873;DHT22;7528;48.576;19.122;2023-04-12T18:10:47;15.20;41.20
14873;DHT22;7528;48.576;19.122;2023-04-12T18:15:51;15.10;40.60
14873;DHT22;7528;48.576;19.122;2023-04-12T18:20:54;14.90;40.80
14873;DHT22;7528;48.576;19.122;2023-04-12T18:25:57;14.80;41.20
14873;DHT22;7528;48.576;19.122;2023-04-12T18:31:02;14.70;41.40
14873;DHT22;7528;48.576;19.122;2023-04-12T18:36:05;14.60;41.40
14873;DHT22;7528;48.576;19.122;2023-04-12T18:41:10;14.60;41.10
14873;DHT22;7528;48.576;19.122;2023-04-12T18:46:16;14.50;40.80
14873;DHT22;7528;48.576;19.122;2023-04-12T18:51:20;14.40;40.70
14873;DHT22;7528;48.576;19.122;2023-04-12T18:56:23;14.40;42.20
14873;DHT22;7528;48.576;19.122;2023-04-12T19:01:28;14.30;43.40
14873;DHT22;7528;48.576;19.122;2023-04-12T19:06:30;14.20;43.60
14873;DHT22;7528;48.576;19.122;2023-04-12T19:11:33;14.00;45.30
14873;DHT22;7528;48.576;19.122;2023-04-12T19:16:37;13.90;45.40
14873;DHT22;7528;48.576;19.122;2023-04-12T19:21:39;13.80;45.30
14873;DHT22;7528;48.576;19.122;2023-04-12T19:26:42;13.70;46.10
14873;DHT22;7528;48.576;19.122;2023-04-12T19:31:48;13.60;47.00
14873;DHT22;7528;48.576;19.122;2023-04-12T19:36:51;13.50;46.80
14873;DHT22;7528;48.576;19.122;2023-04-12T19:41:54;13.30;47.60
14873;DHT22;7528;48.576;19.122;2023-04-12T19:46:59;13.30;47.80
14873;DHT22;7528;48.576;19.122;2023-04-12T19:52:02;13.20;47.20
14873;DHT22;7528;48.576;19.122;2023-04-12T19:57:05;13.10;48.10
14873;DHT22;7528;48.576;19.122;2023-04-12T20:02:09;13.10;48.50
14873;DHT22;7528;48.576;19.122;2023-04-12T20:07:12;12.90;48.10
14873;DHT22;7528;48.576;19.122;2023-04-12T20:12:15;12.90;48.90
14873;DHT22;7528;48.576;19.122;2023-04-12T20:17:20;12.80;49.20
14873;DHT22;7528;48.576;19.122;2023-04-12T20:22:23;12.70;49.10
14873;DHT22;7528;48.576;19.122;2023-04-12T20:27:26;12.60;49.70
14873;DHT22;7528;48.576;19.122;2023-04-12T20:32:30;12.50;49.70
14873;DHT22;7528;48.576;19.122;2023-04-12T20:37:33;12.40;50.10
14873;DHT22;7528;48.576;19.122;2023-04-12T20:42:36;12.30;50.20
14873;DHT22;7528;48.576;19.122;2023-04-12T20:47:40;12.20;50.10
14873;DHT22;7528;48.576;19.122;2023-04-12T20:52:42;12.10;50.60
14873;DHT22;7528;48.576;19.122;2023-04-12T20:57:45;12.00;50.90
14873;DHT22;7528;48.576;19.122;2023-04-12T21:02:49;11.90;50.20
14873;DHT22;7528;48.576;19.122;2023-04-12T21:07:52;11.80;50.10
14873;DHT22;7528;48.576;19.122;2023-04-12T21:12:54;11.70;50.90
14873;DHT22;7528;48.576;19.122;2023-04-12T21:17:59;11.60;51.10
14873;DHT22;7528;48.576;19.122;2023-04-12T21:23:02;11.50;51.50
14873;DHT22;7528;48.576;19.122;2023-04-12T21:28:06;11.40;51.90
14873;DHT22;7528;48.576;19.122;2023-04-12T21:33:11;11.40;52.10
14873;DHT22;7528;48.576;19.122;2023-04-12T21:38:14;11.40;52.30
14873;DHT22;7528;48.576;19.122;2023-04-12T21:43:16;11.40;52.20
14873;DHT22;7528;48.576;19.122;2023-04-12T21:48:21;11.30;52.50
14873;DHT22;7528;48.576;19.122;2023-04-12T21:53:23;11.30;52.90
14873;DHT22;7528;48.576;19.122;2023-04-12T21:58:26;11.30;52.80
14873;DHT22;7528;48.576;19.122;2023-04-12T22:03:31;11.30;52.90
14873;DHT22;7528;48.576;19.122;2023-04-12T22:08:34;11.30;52.70
14873;DHT22;7528;48.576;19.122;2023-04-12T22:13:38;11.30;53.50
14873;DHT22;7528;48.576;19.122;2023-04-12T22:18:43;11.30;53.80
14873;DHT22;7528;48.576;19.122;2023-04-12T22:23:46;11.20;53.80
14873;DHT22;7528;48.576;19.122;2023-04-12T22:28:50;11.20;54.40
14873;DHT22;7528;48.576;19.122;2023-04-12T22:33:55;11.20;54.50
14873;DHT22;7528;48.576;19.122;2023-04-12T22:38:58;11.10;55.20
14873;DHT22;7528;48.576;19.122;2023-04-12T22:44:01;11.20;55.20
14873;DHT22;7528;48.576;19.122;2023-04-12T22:49:05;11.10;54.70
14873;DHT22;7528;48.576;19.122;2023-04-12T22:54:08;11.10;53.80
14873;DHT22;7528;48.576;19.122;2023-04-12T22:59:10;11.10;54.00
14873;DHT22;7528;48.576;19.122;2023-04-12T23:04:16;11.00;54.00
14873;DHT22;7528;48.576;19.122;2023-04-12T23:09:19;11.10;54.50
14873;DHT22;7528;48.576;19.122;2023-04-12T23:14:22;11.10;54.30
14873;DHT22;7528;48.576;19.122;2023-04-12T23:19:26;11.10;54.60
14873;DHT22;7528;48.576;19.122;2023-04-12T23:24:29;11.10;54.80
14873;DHT22;7528;48.576;19.122;2023-04-12T23:29:31;11.10;54.50
14873;DHT22;7528;48.576;19.122;2023-04-12T23:34:36;11.00;54.60
14873;DHT22;7528;48.576;19.122;2023-04-12T23:39:39;11.00;55.00
14873;DHT22;7528;48.576;19.122;2023-04-12T23:44:41;11.00;55.40
14873;DHT22;7528;48.576;19.122;2023-04-12T23:49:46;11.00;55.80
14873;DHT22;7528;48.576;19.122;2023-04-12T23:54:48;10.90;55.40
14873;DHT22;7528;48.576;19.122;2023-04-12T23:59:51;11.00;55.20
